createdAt,value
2022-12-11T00:04:50.549Z,954.06
2022-12-11T00:09:52.025Z,954.15
2022-12-11T00:14:54.048Z,954.1
2022-12-11T00:19:55.608Z,954.14
2022-12-11T00:24:56.973Z,954.1
2022-12-11T00:29:58.611Z,954.07
2022-12-11T00:34:59.702Z,954.09
2022-12-11T00:40:01.832Z,954.14
2022-12-11T00:45:03.671Z,954.21
2022-12-11T00:50:04.852Z,954.27
2022-12-11T00:55:06.678Z,954.23
2022-12-11T01:00:08.008Z,954.23
2022-12-11T01:05:09.720Z,954.28
2022-12-11T01:10:11.573Z,954.26
2022-12-11T01:15:13.219Z,954.24
2022-12-11T01:20:14.154Z,954.28
2022-12-11T01:25:15.438Z,954.29
2022-12-11T01:30:16.852Z,954.3
2022-12-11T01:35:18.788Z,954.36
2022-12-11T01:40:21.042Z,954.48
2022-12-11T01:45:25.697Z,954.53
2022-12-11T01:50:24.762Z,954.57
2022-12-11T01:55:26.397Z,954.58
2022-12-11T02:00:36.384Z,954.61
2022-12-11T02:05:30.250Z,954.63
2022-12-11T02:10:31.503Z,954.65
2022-12-11T02:15:33.462Z,954.6
2022-12-11T02:20:34.817Z,954.49
2022-12-11T02:25:36.255Z,954.46
2022-12-11T02:30:37.632Z,954.37
2022-12-11T02:35:39.362Z,954.44
2022-12-11T02:40:41.194Z,954.43
2022-12-11T03:20:55.028Z,954.59
2022-12-11T03:46:04.048Z,954.68
2022-12-11T03:51:06.055Z,954.7
2022-12-11T04:11:12.584Z,954.78
2022-12-11T04:16:14.198Z,954.81
2022-12-11T04:21:16.270Z,954.76
2022-12-11T04:26:17.697Z,954.75
2022-12-11T04:31:19.607Z,954.79
2022-12-11T04:36:21.089Z,954.78
2022-12-11T04:41:22.967Z,954.75
2022-12-11T04:46:25.033Z,954.64
2022-12-11T04:51:26.878Z,954.63
2022-12-11T04:56:28.988Z,954.5
2022-12-11T05:01:31.019Z,954.57
2022-12-11T05:06:33.290Z,954.63
2022-12-11T05:11:34.532Z,954.61
2022-12-11T05:16:35.745Z,954.52
2022-12-11T05:21:37.708Z,954.49
2022-12-11T05:26:39.088Z,954.46
2022-12-11T05:31:40.786Z,954.45
2022-12-11T05:36:42.616Z,954.36
2022-12-11T05:41:43.759Z,954.39
2022-12-11T05:46:45.714Z,954.5
2022-12-11T05:51:46.926Z,954.54
2022-12-11T05:56:48.871Z,954.59
2022-12-11T06:01:50.816Z,954.57
2022-12-11T06:06:52.322Z,954.57
2022-12-11T06:11:53.984Z,954.57
2022-12-11T06:16:56.092Z,954.47
2022-12-11T06:21:58.148Z,954.35
2022-12-11T06:27:00.196Z,954.37
2022-12-11T06:32:01.573Z,954.43
2022-12-11T06:37:09.258Z,954.44
2022-12-11T06:42:11.088Z,954.45
2022-12-11T06:47:13.168Z,954.45
2022-12-11T06:52:18.332Z,954.52
2022-12-11T06:57:16.319Z,954.51
2022-12-11T07:02:17.715Z,954.45
2022-12-11T07:07:19.421Z,954.44
2022-12-11T07:12:20.889Z,954.42
2022-12-11T07:17:22.596Z,954.47
2022-12-11T07:22:24.049Z,954.54
2022-12-11T07:27:25.625Z,954.6
2022-12-11T07:32:27.930Z,954.58
2022-12-11T07:37:28.943Z,954.62
2022-12-11T07:42:30.495Z,954.68
2022-12-11T07:47:31.636Z,954.67
2022-12-11T07:52:33.800Z,954.69
2022-12-11T07:57:35.802Z,954.69
2022-12-11T08:02:37.780Z,954.68
2022-12-11T08:07:39.519Z,954.71
2022-12-11T08:12:41.605Z,954.73
2022-12-11T08:17:43.666Z,954.76
2022-12-11T08:22:45.529Z,954.84
2022-12-11T08:27:47.453Z,954.87
2022-12-11T08:32:48.838Z,954.77
2022-12-11T08:37:50.597Z,954.81
2022-12-11T08:42:52.709Z,954.87
2022-12-11T08:47:54.264Z,954.83
2022-12-11T08:52:56.039Z,954.83
2022-12-11T08:57:57.598Z,954.88
2022-12-11T09:02:59.537Z,954.95
2022-12-11T09:08:00.997Z,954.92
2022-12-11T09:13:02.588Z,954.83
2022-12-11T09:18:04.039Z,954.82
2022-12-11T09:23:05.668Z,954.84
2022-12-11T09:28:13.359Z,954.86
2022-12-11T09:33:09.443Z,954.8
2022-12-11T09:38:10.930Z,954.78
2022-12-11T09:43:12.352Z,954.8
2022-12-11T09:48:14.350Z,954.75
2022-12-11T09:53:15.576Z,954.67
2022-12-11T09:58:16.845Z,954.64
2022-12-11T10:03:18.368Z,954.65
2022-12-11T10:08:19.977Z,954.65
2022-12-11T10:13:21.778Z,954.66
2022-12-11T10:18:23.738Z,954.59
2022-12-11T10:23:25.033Z,954.46
2022-12-11T10:28:26.230Z,954.44
2022-12-11T10:33:27.894Z,954.4
2022-12-11T10:38:29.599Z,954.24
2022-12-11T10:43:31.628Z,954.24
2022-12-11T10:48:33.501Z,954.33
2022-12-11T10:53:34.747Z,954.29
2022-12-11T10:58:36.148Z,954.17
2022-12-11T11:03:37.244Z,954.12
2022-12-11T11:08:38.879Z,953.96
2022-12-11T11:13:40.789Z,953.98
2022-12-11T11:18:42.256Z,953.94
2022-12-11T11:23:46.350Z,953.82
2022-12-11T11:28:45.424Z,953.72
2022-12-11T11:33:47.543Z,953.65
2022-12-11T11:38:48.963Z,953.59
2022-12-11T11:43:51.024Z,953.59
2022-12-11T11:48:52.498Z,953.52
2022-12-11T11:53:54.385Z,953.53
2022-12-11T11:58:56.087Z,953.58
2022-12-11T12:03:57.505Z,953.53
2022-12-11T12:08:58.872Z,953.51
2022-12-11T12:14:00.306Z,953.54
2022-12-11T12:19:01.947Z,953.54
2022-12-11T12:24:03.782Z,953.46
2022-12-11T12:29:05.401Z,953.46
2022-12-11T12:34:07.185Z,953.41
2022-12-11T12:39:08.541Z,953.4
2022-12-11T12:44:10.012Z,953.44
2022-12-11T12:49:11.359Z,953.46
2022-12-11T12:54:12.730Z,953.39
2022-12-11T12:59:14.230Z,953.36
2022-12-11T13:04:32.601Z,953.35
2022-12-11T13:09:17.303Z,953.34
2022-12-11T13:14:18.569Z,953.37
2022-12-11T13:19:20.131Z,953.42
2022-12-11T13:24:22.145Z,953.46
2022-12-11T13:29:23.855Z,953.53
2022-12-11T13:34:25.767Z,953.56
2022-12-11T13:39:27.925Z,953.55
2022-12-11T13:44:29.336Z,953.55
2022-12-11T13:49:31.016Z,953.52
2022-12-11T13:54:33.019Z,953.42
2022-12-11T13:59:34.530Z,953.47
2022-12-11T14:04:36.379Z,953.47
2022-12-11T14:09:38.579Z,953.46
2022-12-11T14:14:40.130Z,953.42
2022-12-11T14:19:41.828Z,953.45
2022-12-11T14:24:43.615Z,953.43
2022-12-11T14:29:45.197Z,953.42
2022-12-11T14:34:46.904Z,953.47
2022-12-11T14:39:48.713Z,953.52
2022-12-11T14:44:50.666Z,953.54
2022-12-11T14:49:52.221Z,953.57
2022-12-11T14:54:54.000Z,953.58
2022-12-11T14:59:56.076Z,953.68
2022-12-11T15:04:57.218Z,953.72
2022-12-11T15:09:59.071Z,953.65
2022-12-11T15:15:01.062Z,953.69
2022-12-11T15:20:02.404Z,953.58
2022-12-11T15:25:03.737Z,953.61
2022-12-11T15:30:05.680Z,953.58
2022-12-11T15:35:07.842Z,953.57
2022-12-11T15:40:09.661Z,953.65
2022-12-11T15:45:11.148Z,953.63
2022-12-11T15:50:13.396Z,953.69
2022-12-11T15:55:14.826Z,953.75
2022-12-11T16:00:16.904Z,953.75
2022-12-11T16:05:18.331Z,953.73
2022-12-11T16:10:20.397Z,953.78
2022-12-11T16:15:23.987Z,953.87
2022-12-11T16:20:24.094Z,953.92
2022-12-11T16:25:25.509Z,953.92
2022-12-11T16:30:27.477Z,953.88
2022-12-11T16:35:28.636Z,953.89
2022-12-11T16:40:30.404Z,953.85
2022-12-11T16:45:32.442Z,953.88
2022-12-11T16:50:34.725Z,953.9
2022-12-11T16:55:35.932Z,953.92
2022-12-11T17:00:38.040Z,953.98
2022-12-11T17:05:39.824Z,953.99
2022-12-11T17:10:41.076Z,953.92
2022-12-11T18:05:58.439Z,954.15
2022-12-11T18:11:00.592Z,954.12
2022-12-11T18:16:02.723Z,954.18
2022-12-11T18:26:06.385Z,954.19
2022-12-11T18:31:08.099Z,954.22
2022-12-11T18:36:10.204Z,954.27
2022-12-11T18:41:11.943Z,954.3
2022-12-11T18:46:19.694Z,954.33
2022-12-11T18:51:15.647Z,954.33
2022-12-11T18:56:17.381Z,954.34
2022-12-11T19:01:19.314Z,954.34
2022-12-11T19:06:21.326Z,954.36
2022-12-11T19:11:23.387Z,954.36
2022-12-11T19:16:25.418Z,954.31
2022-12-11T19:21:26.743Z,954.33
2022-12-11T19:26:33.884Z,954.35
2022-12-11T19:31:29.691Z,954.36
2022-12-11T19:36:30.998Z,954.31
2022-12-11T19:41:32.550Z,954.29
2022-12-11T19:46:33.821Z,954.26
2022-12-11T19:51:34.955Z,954.3
2022-12-11T19:56:36.969Z,954.32
2022-12-11T20:01:38.508Z,954.35
2022-12-11T20:06:39.624Z,954.41
2022-12-11T20:11:41.021Z,954.44
2022-12-11T20:21:43.710Z,954.48
2022-12-11T20:26:45.117Z,954.47
2022-12-11T20:31:51.500Z,954.46
2022-12-11T20:36:47.902Z,954.42
2022-12-11T20:41:49.399Z,954.43
2022-12-11T20:46:51.351Z,954.45
2022-12-11T20:51:52.685Z,954.42
2022-12-11T20:56:53.926Z,954.43
2022-12-11T21:01:55.376Z,954.41
2022-12-11T21:06:56.504Z,954.33
2022-12-11T21:11:57.834Z,954.34
2022-12-11T21:16:59.238Z,954.31
2022-12-11T21:22:01.074Z,954.32
2022-12-11T21:27:02.698Z,954.26
2022-12-11T21:32:04.153Z,954.28
2022-12-11T21:37:11.328Z,954.27
2022-12-11T21:42:07.030Z,954.3
2022-12-11T21:47:09.020Z,954.31
2022-12-11T21:52:10.791Z,954.3
2022-12-11T21:57:22.801Z,954.34
2022-12-11T22:02:14.238Z,954.33
2022-12-11T22:07:15.428Z,954.31
2022-12-11T22:12:17.478Z,954.31
2022-12-11T22:17:19.352Z,954.31
2022-12-11T22:22:21.302Z,954.33
2022-12-11T22:27:23.962Z,954.37
2022-12-11T22:32:24.845Z,954.34
2022-12-11T22:37:26.267Z,954.3
2022-12-11T22:42:27.961Z,954.35
2022-12-11T22:47:30.156Z,954.35
2022-12-11T22:52:37.350Z,954.34
2022-12-11T22:57:33.147Z,954.33
2022-12-11T23:02:34.614Z,954.38
2022-12-11T23:07:35.862Z,954.4
2022-12-11T23:12:37.173Z,954.41
2022-12-11T23:17:38.425Z,954.42
2022-12-11T23:22:46.865Z,954.44
2022-12-11T23:27:48.849Z,954.47
2022-12-11T23:32:50.711Z,954.5
2022-12-11T23:37:52.148Z,954.52
2022-12-11T23:42:54.309Z,954.53
2022-12-11T23:47:55.479Z,954.49
2022-12-11T23:52:57.090Z,954.52
2022-12-11T23:57:58.305Z,954.51
